Time;durP1;ratioP1;P1;durP2;ratioP2;P2;SDS_P1;SDS_P2;PMS_P1;PMS_P2;Temp;Humidity;BMP_temperature;BMP_pressure;BME280_temperature;BME280_humidity;BME280_pressure;Samples;Min_cycle;Max_cycle;Signal;HPM_P1;HPM_P2
2021/11/28 00:01:54;;;;;;;63.58;13.18;;;;;;;0.29;100.00;101134.75;6133005;23;20021;-87
2021/11/28 00:04:21;;;;;;;40.53;11.50;;;;;;;0.22;100.00;101121.06;6156445;23;20016;-87
2021/11/28 00:06:59;;;;;;;25.23;7.53;;;;;;;0.24;100.00;101126.28;6132790;23;20027;-87
2021/11/28 00:14:36;;;;;;;19.52;6.60;;;;;;;0.16;100.00;101102.97;6133514;23;20087;-88
2021/11/28 00:17:02;;;;;;;14.45;6.85;;;;;;;0.25;100.00;101101.50;6108056;23;20016;-87
2021/11/28 00:19:28;;;;;;;24.30;7.93;;;;;;;0.33;100.00;101101.84;6107448;23;20009;-87
2021/11/28 00:21:53;;;;;;;33.85;9.80;;;;;;;0.33;100.00;101101.84;6131465;23;20333;-87
2021/11/28 00:24:19;;;;;;;47.03;13.48;;;;;;;0.37;100.00;101099.84;6108204;23;20040;-87
2021/11/28 00:26:45;;;;;;;39.67;11.57;;;;;;;0.42;100.00;101100.38;6107741;23;20336;-88
2021/11/28 00:29:10;;;;;;;37.55;10.15;;;;;;;0.44;100.00;101099.34;6132840;23;20009;-88
2021/11/28 00:31:36;;;;;;;46.63;13.88;;;;;;;0.45;100.00;101108.13;6107493;23;20047;-86
2021/11/28 00:34:02;;;;;;;40.20;12.55;;;;;;;0.49;100.00;101098.19;6132280;23;20040;-87
2021/11/28 00:36:30;;;;;;;42.55;13.68;;;;;;;0.51;100.00;101101.59;6157155;23;20029;-85
2021/11/28 00:38:56;;;;;;;60.97;15.68;;;;;;;0.47;100.00;101095.63;6131327;23;20052;-88
2021/11/28 00:41:22;;;;;;;57.70;15.23;;;;;;;0.55;100.00;101098.59;6132305;23;20624;-87
2021/11/28 00:43:47;;;;;;;44.22;13.35;;;;;;;0.60;100.00;101095.66;6107811;23;20009;-86
2021/11/28 00:46:13;;;;;;;37.97;12.32;;;;;;;0.60;100.00;101082.44;6132847;23;20337;-87
2021/11/28 00:48:42;;;;;;;24.35;8.50;;;;;;;0.57;100.00;101082.66;6132487;23;20005;-86
2021/11/28 00:53:43;;;;;;;22.15;7.43;;;;;;;0.67;100.00;101086.38;6156568;23;20353;-88
2021/11/28 00:56:09;;;;;;;21.27;8.23;;;;;;;0.67;100.00;101074.94;6156474;23;20417;-88
2021/11/28 00:58:35;;;;;;;31.90;9.30;;;;;;;0.70;100.00;101070.28;6132480;23;20033;-85
2021/11/28 01:01:00;;;;;;;21.48;7.95;;;;;;;0.75;100.00;101067.31;6107650;23;20005;-84
2021/11/28 01:03:26;;;;;;;17.58;7.45;;;;;;;0.74;100.00;101055.91;6132426;23;20341;-87
2021/11/28 01:05:53;;;;;;;27.13;9.15;;;;;;;0.79;100.00;101059.03;6156685;23;20051;-87
2021/11/28 01:08:19;;;;;;;27.83;8.57;;;;;;;0.73;100.00;101046.25;6156808;23;20016;-87
2021/11/28 01:10:46;;;;;;;27.15;9.73;;;;;;;0.75;100.00;101044.34;6156867;23;19997;-89
2021/11/28 01:13:13;;;;;;;30.67;9.43;;;;;;;0.71;100.00;101040.19;6133229;23;20009;-89
2021/11/28 01:15:39;;;;;;;23.77;7.80;;;;;;;0.68;100.00;101023.69;6156385;23;20449;-87
2021/11/28 01:18:04;;;;;;;23.90;8.15;;;;;;;0.72;100.00;101027.84;6107799;23;20047;-86
2021/11/28 01:20:30;;;;;;;20.80;7.45;;;;;;;0.70;100.00;101021.78;6156493;23;20012;-89
2021/11/28 01:22:56;;;;;;;19.83;6.32;;;;;;;0.65;100.00;101022.09;6156336;23;20450;-86
2021/11/28 01:25:22;;;;;;;14.27;6.47;;;;;;;0.68;100.00;101024.53;6132721;23;20005;-86
2021/11/28 01:27:48;;;;;;;20.95;6.97;;;;;;;0.66;100.00;101015.84;6132022;23;20005;-89
2021/11/28 01:30:14;;;;;;;23.95;8.15;;;;;;;0.65;100.00;101014.16;6107441;23;20448;-88
2021/11/28 01:32:44;;;;;;;30.70;10.25;;;;;;;0.70;100.00;101022.63;6106655;23;20033;-85
2021/11/28 01:35:12;;;;;;;33.25;9.00;;;;;;;0.73;100.00;101022.41;6131713;23;20072;-87
2021/11/28 01:37:38;;;;;;;27.10;6.50;;;;;;;0.73;100.00;101005.69;6154899;23;20013;-87
2021/11/28 01:40:06;;;;;;;17.02;5.65;;;;;;;0.80;100.00;101009.63;6131400;23;20370;-88
2021/11/28 01:42:34;;;;;;;22.35;8.02;;;;;;;0.83;100.00;101012.88;6107426;23;20031;-87
2021/11/28 01:45:00;;;;;;;26.92;7.47;;;;;;;0.84;100.00;101013.72;6131396;23;20095;-86
2021/11/28 01:47:26;;;;;;;18.50;6.55;;;;;;;0.86;100.00;101009.19;6156749;23;20029;-87
2021/11/28 01:49:51;;;;;;;16.13;5.70;;;;;;;0.84;100.00;101014.56;6107107;23;20009;-89
2021/11/28 01:52:19;;;;;;;20.60;6.30;;;;;;;0.86;100.00;101011.84;6156066;23;20009;-86
2021/11/28 01:54:45;;;;;;;17.67;4.63;;;;;;;0.86;100.00;101001.25;6131981;23;20380;-86
2021/11/28 01:57:11;;;;;;;13.18;4.47;;;;;;;0.81;100.00;100993.63;6181240;23;20013;-86
2021/11/28 01:59:36;;;;;;;15.40;4.60;;;;;;;0.85;100.00;100996.91;6183388;23;20449;-87
2021/11/28 02:02:02;;;;;;;14.23;4.75;;;;;;;0.82;100.00;100989.16;6107516;23;20009;-86
2021/11/28 02:04:28;;;;;;;12.70;5.10;;;;;;;0.90;100.00;100999.22;6131495;23;20012;-86
2021/11/28 02:06:54;;;;;;;12.20;5.15;;;;;;;0.90;100.00;100988.63;6132078;23;19997;-88
2021/11/28 02:09:19;;;;;;;17.00;6.22;;;;;;;0.92;100.00;101003.44;6156559;23;20024;-87
2021/11/28 02:11:46;;;;;;;14.93;4.80;;;;;;;0.95;100.00;101008.53;6107089;23;20005;-85
2021/11/28 02:14:12;;;;;;;12.35;4.82;;;;;;;0.99;100.00;101012.66;6155695;23;20031;-86
2021/11/28 02:16:38;;;;;;;13.77;4.68;;;;;;;0.97;100.00;100997.84;6131138;23;20013;-88
2021/11/28 02:19:04;;;;;;;15.68;6.00;;;;;;;0.97;100.00;100981.94;6131301;23;20429;-86
2021/11/28 02:21:30;;;;;;;15.48;5.00;;;;;;;1.02;100.00;100979.81;6155809;23;20008;-86
2021/11/28 02:23:56;;;;;;;21.15;5.65;;;;;;;1.00;100.00;100971.13;6107232;23;20035;-87
2021/11/28 02:26:22;;;;;;;18.88;5.82;;;;;;;1.04;100.00;100976.13;6132065;23;20036;-86
2021/11/28 02:28:48;;;;;;;16.83;6.05;;;;;;;1.06;100.00;100976.88;6131490;23;20012;-87
2021/11/28 02:31:17;;;;;;;16.15;5.85;;;;;;;1.04;100.00;100973.47;6155916;23;20009;-88
2021/11/28 02:33:43;;;;;;;14.95;6.07;;;;;;;1.09;100.00;100970.50;6156318;23;20137;-87
2021/11/28 02:36:09;;;;;;;15.25;5.47;;;;;;;1.12;100.00;100967.63;6131393;23;20038;-87
2021/11/28 02:38:35;;;;;;;14.98;5.25;;;;;;;1.10;100.00;100957.13;6130591;23;20096;-89
2021/11/28 02:41:01;;;;;;;15.65;6.68;;;;;;;1.18;100.00;100961.03;6131862;23;20350;-88
2021/11/28 02:43:29;;;;;;;17.25;6.00;;;;;;;1.17;100.00;100952.25;6155999;23;20016;-87
2021/11/28 02:45:55;;;;;;;15.85;6.50;;;;;;;1.15;100.00;100943.56;6107126;23;20016;-86
2021/11/28 02:48:21;;;;;;;14.05;6.00;;;;;;;1.16;100.00;100936.47;6155978;23;20004;-86
2021/11/28 02:50:48;;;;;;;13.80;5.13;;;;;;;1.17;100.00;100940.81;6182163;23;20001;-85
2021/11/28 02:53:15;;;;;;;14.05;5.47;;;;;;;1.19;100.00;100936.25;6131659;23;20481;-86
2021/11/28 02:55:44;;;;;;;17.45;6.25;;;;;;;1.17;100.00;100931.06;6131044;23;20429;-88
2021/11/28 02:58:12;;;;;;;14.43;6.07;;;;;;;1.20;100.00;100925.53;6151574;23;20029;-88
2021/11/28 03:00:41;;;;;;;19.77;7.38;;;;;;;1.20;100.00;100930.84;6130197;23;20012;-87
2021/11/28 03:03:07;;;;;;;18.38;6.07;;;;;;;1.23;100.00;100937.72;6130306;23;20185;-86
2021/11/28 03:05:33;;;;;;;17.25;6.75;;;;;;;1.23;100.00;100929.78;6154796;23;20009;-88
2021/11/28 03:07:58;;;;;;;16.08;6.20;;;;;;;1.23;100.00;100913.88;6154958;23;20013;-88
2021/11/28 03:10:38;;;;;;;14.60;6.38;;;;;;;1.25;100.00;100902.22;6155450;23;20181;-87
2021/11/28 03:13:08;;;;;;;17.58;7.57;;;;;;;1.26;100.00;100903.91;6130315;23;20040;-87
2021/11/28 03:15:34;;;;;;;20.75;7.45;;;;;;;1.27;100.00;100899.44;6130149;23;20005;-87
2021/11/28 03:18:02;;;;;;;18.88;7.13;;;;;;;1.28;100.00;100896.69;6106163;23;20434;-85
2021/11/28 03:20:28;;;;;;;17.45;6.43;;;;;;;1.30;100.00;100900.09;6155762;23;20001;-86
2021/11/28 03:22:57;;;;;;;20.52;7.00;;;;;;;1.31;100.00;100895.63;6155322;23;20004;-87
2021/11/28 03:25:24;;;;;;;15.27;6.65;;;;;;;1.30;100.00;100889.47;6179690;23;20013;-88
2021/11/28 03:27:49;;;;;;;17.27;6.40;;;;;;;1.34;100.00;100881.31;6154609;23;20144;-88
2021/11/28 03:30:17;;;;;;;19.00;6.53;;;;;;;1.34;100.00;100878.66;6154674;23;20453;-88
2021/11/28 03:32:43;;;;;;;18.85;7.10;;;;;;;1.35;100.00;100877.69;6108102;23;20013;-87
2021/11/28 03:35:09;;;;;;;16.10;7.07;;;;;;;1.34;100.00;100863.59;6132498;23;20013;-88
2021/11/28 03:37:35;;;;;;;20.60;8.02;;;;;;;1.35;100.00;100862.66;6132093;23;20020;-87
2021/11/28 03:40:04;;;;;;;18.08;7.43;;;;;;;1.33;100.00;100863.72;6156954;23;20017;-88
2021/11/28 03:42:30;;;;;;;21.90;7.57;;;;;;;1.34;100.00;100857.47;6157219;23;20005;-86
2021/11/28 03:44:56;;;;;;;17.80;6.35;;;;;;;1.38;100.00;100848.34;6108230;23;20372;-87
2021/11/28 03:47:22;;;;;;;17.88;7.50;;;;;;;1.40;100.00;100839.28;6133031;23;20079;-89
2021/11/28 03:49:47;;;;;;;16.80;6.53;;;;;;;1.39;100.00;100836.78;6157095;23;20005;-85
2021/11/28 03:52:16;;;;;;;18.40;7.40;;;;;;;1.30;100.00;100815.31;6183772;23;20004;-87
2021/11/28 03:54:42;;;;;;;19.30;7.32;;;;;;;1.41;100.00;100832.22;6157543;23;20365;-88
2021/11/28 03:57:07;;;;;;;16.65;6.93;;;;;;;1.41;100.00;100824.25;6132792;23;20015;-87
2021/11/28 03:59:33;;;;;;;14.73;6.90;;;;;;;1.42;100.00;100812.69;6183498;23;20045;-86
2021/11/28 04:01:59;;;;;;;19.88;6.97;;;;;;;1.41;100.00;100811.00;6156873;23;20056;-85
2021/11/28 04:04:25;;;;;;;15.95;7.90;;;;;;;1.36;100.00;100795.47;6133020;23;20043;-89
2021/11/28 04:06:51;;;;;;;16.30;7.10;;;;;;;1.33;100.00;100787.75;6182777;23;20417;-89
2021/11/28 04:09:16;;;;;;;19.15;7.65;;;;;;;1.47;100.00;100794.66;6183566;23;20055;-86
2021/11/28 04:11:42;;;;;;;22.70;7.70;;;;;;;1.42;100.00;100783.56;6157458;23;20012;-89
2021/11/28 04:14:08;;;;;;;13.95;7.43;;;;;;;1.46;100.00;100791.16;6157232;23;20062;-86
2021/11/28 04:16:33;;;;;;;17.13;8.30;;;;;;;1.53;100.00;100779.13;6157324;23;20005;-86
2021/11/28 04:19:00;;;;;;;14.88;6.57;;;;;;;1.49;100.00;100764.41;6156490;23;20017;-88
2021/11/28 04:21:26;;;;;;;14.45;6.75;;;;;;;1.59;100.00;100772.53;6157062;23;19997;-88
2021/11/28 04:23:53;;;;;;;24.60;8.23;;;;;;;1.62;100.00;100776.75;6156819;23;20009;-88
2021/11/28 04:26:20;;;;;;;19.42;8.52;;;;;;;1.60;100.00;100768.06;6132480;23;20409;-86
2021/11/28 04:28:46;;;;;;;17.42;7.50;;;;;;;1.57;100.00;100763.84;6156956;23;20080;-88
2021/11/28 04:31:11;;;;;;;22.38;7.82;;;;;;;1.64;100.00;100765.06;6107931;23;20012;-87
2021/11/28 04:33:37;;;;;;;21.08;7.88;;;;;;;1.67;100.00;100761.34;6107938;23;20041;-87
2021/11/28 04:36:04;;;;;;;16.88;8.00;;;;;;;1.70;100.00;100758.44;6157019;23;20013;-88
2021/11/28 04:38:30;;;;;;;18.40;7.30;;;;;;;1.71;100.00;100754.81;6157249;23;20005;-89
2021/11/28 04:40:55;;;;;;;17.13;8.52;;;;;;;1.70;100.00;100735.44;6132575;23;20034;-87
2021/11/28 04:43:21;;;;;;;19.58;7.35;;;;;;;1.68;100.00;100729.38;6157205;23;20012;-89
2021/11/28 04:45:47;;;;;;;19.27;7.63;;;;;;;1.71;100.00;100737.09;6181543;23;20017;-88
2021/11/28 04:48:13;;;;;;;17.15;6.90;;;;;;;1.74;100.00;100738.66;6156601;23;20017;-89
2021/11/28 04:50:39;;;;;;;12.27;6.10;;;;;;;1.76;100.00;100744.69;6131872;23;20349;-87
2021/11/28 04:53:05;;;;;;;14.55;6.95;;;;;;;1.77;100.00;100725.16;6156446;23;20464;-88
2021/11/28 04:55:31;;;;;;;15.10;7.30;;;;;;;1.78;100.00;100726.03;6107276;23;20012;-88
2021/11/28 04:57:57;;;;;;;17.85;7.03;;;;;;;1.80;100.00;100722.31;6107797;23;20043;-89
2021/11/28 05:00:24;;;;;;;19.40;6.45;;;;;;;1.85;100.00;100725.41;6157662;23;20001;-89
2021/11/28 05:02:50;;;;;;;14.75;6.00;;;;;;;1.87;100.00;100717.34;6131525;23;20005;-89
2021/11/28 05:05:16;;;;;;;18.23;6.50;;;;;;;1.85;100.00;100704.19;6132192;23;20013;-89
2021/11/28 05:07:42;;;;;;;13.05;6.30;;;;;;;1.91;100.00;100708.19;6156698;23;20414;-88
2021/11/28 05:10:09;;;;;;;11.48;6.15;;;;;;;1.89;100.00;100692.41;6131678;23;20017;-88
2021/11/28 05:12:35;;;;;;;13.65;6.03;;;;;;;1.95;100.00;100696.38;6107520;23;20008;-89
2021/11/28 05:15:00;;;;;;;15.70;6.20;;;;;;;1.96;100.00;100685.66;6156557;23;20005;-88
2021/11/28 05:17:26;;;;;;;16.42;5.78;;;;;;;2.00;100.00;100686.25;6182971;23;20007;-87
2021/11/28 05:19:52;;;;;;;12.57;5.13;;;;;;;2.01;100.00;100682.63;6156585;23;20385;-86
2021/11/28 05:22:18;;;;;;;12.25;5.63;;;;;;;2.03;100.00;100685.16;6156860;23;20001;-87
2021/11/28 05:24:44;;;;;;;15.85;5.45;;;;;;;2.04;100.00;100685.03;6131562;23;20067;-88
2021/11/28 05:27:10;;;;;;;15.80;4.78;;;;;;;2.05;100.00;100680.59;6131894;23;20009;-90
2021/11/28 05:29:36;;;;;;;12.65;5.40;;;;;;;2.06;100.00;100679.59;6156416;23;20012;-90
2021/11/28 05:32:02;;;;;;;11.55;3.72;;;;;;;2.07;100.00;100676.84;6132392;23;19997;-89
2021/11/28 05:34:28;;;;;;;12.52;4.43;;;;;;;2.13;100.00;100663.06;6107201;23;20092;-86
2021/11/28 05:36:54;;;;;;;14.52;3.35;;;;;;;2.18;100.00;100658.25;6155429;23;20147;-89
2021/11/28 05:39:19;;;;;;;15.57;3.33;;;;;;;2.28;100.00;100657.50;6131200;23;20017;-85
2021/11/28 05:41:45;;;;;;;8.77;3.20;;;;;;;2.35;100.00;100659.50;6155865;23;20268;-85
2021/11/28 05:44:11;;;;;;;9.20;2.80;;;;;;;2.34;100.00;100651.69;6155770;23;20064;-86
2021/11/28 05:46:36;;;;;;;5.93;2.38;;;;;;;2.38;100.00;100647.81;6155689;23;20005;-89
2021/11/28 05:49:03;;;;;;;7.28;2.50;;;;;;;2.39;100.00;100639.72;6107357;23;20310;-87
2021/11/28 05:51:28;;;;;;;13.57;2.83;;;;;;;2.44;100.00;100636.72;6106769;23;20016;-88
2021/11/28 05:53:54;;;;;;;10.45;2.97;;;;;;;2.49;100.00;100639.81;6156468;23;20009;-87
2021/11/28 05:56:19;;;;;;;11.75;3.35;;;;;;;2.47;100.00;100632.97;6155834;23;20013;-89
2021/11/28 05:58:45;;;;;;;7.00;2.60;;;;;;;2.47;100.00;100617.88;6156024;23;20005;-87
2021/11/28 06:01:11;;;;;;;8.77;2.88;;;;;;;2.48;100.00;100632.81;6155757;23;20324;-87
2021/11/28 06:03:36;;;;;;;7.80;2.55;;;;;;;2.51;100.00;100621.94;6155422;23;20011;-88
2021/11/28 06:06:02;;;;;;;8.48;3.00;;;;;;;2.57;100.00;100625.94;6130956;23;20040;-88
2021/11/28 06:08:28;;;;;;;12.45;3.40;;;;;;;2.61;100.00;100616.72;6130896;23;20024;-86
2021/11/28 06:10:53;;;;;;;8.95;2.90;;;;;;;2.66;100.00;100611.03;6155661;23;20005;-87
2021/11/28 06:13:19;;;;;;;8.93;3.22;;;;;;;2.66;100.00;100597.75;6155953;23;20370;-87
2021/11/28 06:15:45;;;;;;;10.70;3.42;;;;;;;2.71;100.00;100584.94;6131713;23;20333;-88
2021/11/28 06:18:10;;;;;;;8.35;2.58;;;;;;;2.70;100.00;100576.16;6156242;23;20033;-87
2021/11/28 06:20:37;;;;;;;12.95;3.25;;;;;;;2.76;100.00;100577.44;6131629;23;20434;-88
2021/11/28 06:23:03;;;;;;;6.88;2.72;;;;;;;2.79;100.00;100588.63;6130956;23;20024;-87
2021/11/28 06:25:29;;;;;;;10.27;3.10;;;;;;;2.79;100.00;100575.34;6156002;23;20092;-87
2021/11/28 06:27:55;;;;;;;4.85;2.60;;;;;;;2.83;100.00;100590.06;6130493;23;20072;-89
2021/11/28 06:30:20;;;;;;;8.52;2.58;;;;;;;2.83;100.00;100590.06;6131911;23;20368;-87
2021/11/28 06:32:46;;;;;;;9.10;3.03;;;;;;;2.82;100.00;100587.53;6181879;23;20115;-85
2021/11/28 06:35:12;;;;;;;9.05;2.83;;;;;;;2.79;100.00;100585.13;6130936;23;20037;-87
2021/11/28 06:37:38;;;;;;;6.30;2.58;;;;;;;2.75;100.00;100576.59;6130946;23;20422;-87
2021/11/28 06:40:04;;;;;;;10.07;2.63;;;;;;;2.76;100.00;100572.13;6130764;23;20005;-87
2021/11/28 06:42:30;;;;;;;8.07;2.30;;;;;;;2.71;100.00;100559.22;6131198;23;20513;-87
2021/11/28 06:44:56;;;;;;;8.57;2.22;;;;;;;2.78;100.00;100571.03;6155285;23;20004;-87
2021/11/28 06:47:21;;;;;;;6.10;2.38;;;;;;;2.77;100.00;100568.50;6131465;23;20004;-89
2021/11/28 06:49:47;;;;;;;25.02;9.50;;;;;;;2.78;100.00;100572.81;6131066;23;20045;-87
2021/11/28 06:52:12;;;;;;;14.55;6.15;;;;;;;2.79;100.00;100571.88;6155659;23;20009;-87
2021/11/28 06:54:38;;;;;;;12.23;6.00;;;;;;;2.77;100.00;100563.19;6154858;23;20005;-88
2021/11/28 06:57:04;;;;;;;12.48;5.20;;;;;;;2.75;100.00;100563.31;6155638;23;20412;-87
2021/11/28 06:59:31;;;;;;;17.65;11.25;;;;;;;2.71;100.00;100553.09;6154896;23;20005;-86
2021/11/28 07:01:57;;;;;;;17.35;8.63;;;;;;;2.76;100.00;100569.47;6130809;23;20005;-89
2021/11/28 07:04:23;;;;;;;17.80;9.90;;;;;;;2.73;100.00;100553.81;6106838;23;20016;-87
2021/11/28 07:06:48;;;;;;;19.30;8.52;;;;;;;2.73;100.00;100543.19;6133124;23;20341;-88
2021/11/28 07:09:14;;;;;;;7.53;3.40;;;;;;;2.70;100.00;100532.81;6133596;23;20009;-88
2021/11/28 07:11:40;;;;;;;5.60;2.47;;;;;;;2.77;100.00;100541.94;6133370;23;20012;-87
2021/11/28 07:14:05;;;;;;;8.55;3.00;;;;;;;2.80;100.00;100552.28;6133740;23;20088;-86
2021/11/28 07:16:31;;;;;;;12.15;4.00;;;;;;;2.79;100.00;100537.34;6158036;23;20012;-86
2021/11/28 07:18:57;;;;;;;13.70;6.00;;;;;;;2.79;100.00;100530.22;6134046;23;20540;-86
2021/11/28 07:21:22;;;;;;;17.05;8.10;;;;;;;2.77;100.00;100526.84;6109114;23;20016;-86
2021/11/28 07:23:48;;;;;;;8.35;3.10;;;;;;;2.80;100.00;100531.88;6133121;23;20051;-84
2021/11/28 07:26:38;;;;;;;12.70;4.32;;;;;;;2.81;100.00;100527.44;6133901;23;20317;-87
2021/11/28 07:29:12;;;;;;;6.10;2.90;;;;;;;2.77;100.00;100523.34;6121681;23;20005;-88
2021/11/28 07:31:38;;;;;;;6.88;2.10;;;;;;;2.81;100.00;100530.09;6133515;23;20439;-88
2021/11/28 07:34:04;;;;;;;6.28;2.20;;;;;;;2.73;100.00;100524.59;6158090;23;20044;-88
2021/11/28 07:36:29;;;;;;;6.50;2.28;;;;;;;2.79;100.00;100537.34;6158109;23;20009;-88
2021/11/28 07:38:55;;;;;;;5.88;2.22;;;;;;;2.74;100.00;100532.41;6157867;23;19997;-86
2021/11/28 07:41:20;;;;;;;5.75;2.20;;;;;;;2.72;100.00;100528.22;6184665;23;20044;-84
2021/11/28 07:43:46;;;;;;;8.48;2.88;;;;;;;2.74;100.00;100535.06;6132840;23;20009;-87
2021/11/28 07:46:12;;;;;;;4.68;2.88;;;;;;;2.76;100.00;100533.13;6157420;23;20008;-88
2021/11/28 07:48:37;;;;;;;6.05;2.33;;;;;;;2.76;100.00;100527.81;6158229;23;20001;-87
2021/11/28 07:51:03;;;;;;;8.13;3.08;;;;;;;2.76;100.00;100534.97;6133611;23;20015;-85
2021/11/28 07:53:29;;;;;;;6.25;2.92;;;;;;;2.74;100.00;100531.59;6158215;23;20371;-85
2021/11/28 07:55:54;;;;;;;7.50;2.92;;;;;;;2.77;100.00;100537.47;6157896;23;20012;-89
2021/11/28 07:58:20;;;;;;;13.38;3.55;;;;;;;2.70;100.00;100520.41;6109361;23;20019;-87
2021/11/28 08:00:46;;;;;;;9.52;4.28;;;;;;;2.75;100.00;100543.88;6108327;23;20005;-84
2021/11/28 08:03:12;;;;;;;14.63;4.07;;;;;;;2.69;100.00;100536.44;6109119;23;20005;-87
2021/11/28 08:05:40;;;;;;;14.02;3.97;;;;;;;2.72;100.00;100546.78;6133230;23;20007;-85
2021/11/28 08:08:06;;;;;;;12.40;4.30;;;;;;;2.70;100.00;100540.75;6108682;23;20440;-88
2021/11/28 08:10:32;;;;;;;11.07;4.68;;;;;;;2.70;100.00;100546.06;6133032;23;20012;-86
2021/11/28 08:12:58;;;;;;;15.20;5.68;;;;;;;2.72;100.00;100544.97;6132414;23;20088;-85
2021/11/28 08:15:23;;;;;;;17.15;5.43;;;;;;;2.71;100.00;100542.47;6132682;23;20023;-86
2021/11/28 08:17:50;;;;;;;13.70;5.40;;;;;;;2.71;100.00;100545.97;6157363;23;20009;-87
2021/11/28 08:20:17;;;;;;;14.98;5.30;;;;;;;2.74;100.00;100555.47;6157941;23;20328;-87
2021/11/28 08:22:43;;;;;;;19.63;5.60;;;;;;;2.72;100.00;100536.19;6108614;23;20024;-87
2021/11/28 08:25:13;;;;;;;10.90;4.63;;;;;;;2.73;100.00;100546.69;6133116;23;20001;-87
2021/11/28 08:27:39;;;;;;;12.73;5.28;;;;;;;2.76;100.00;100551.72;6157017;23;20001;-88
2021/11/28 08:30:11;;;;;;;14.48;5.22;;;;;;;2.72;100.00;100534.34;6156549;23;20012;-86
2021/11/28 08:32:39;;;;;;;16.88;5.38;;;;;;;2.78;100.00;100541.81;6109308;23;20096;-87
2021/11/28 08:35:06;;;;;;;14.07;5.70;;;;;;;2.73;100.00;100536.06;6157013;23;20045;-85
2021/11/28 08:37:32;;;;;;;18.42;7.05;;;;;;;2.78;100.00;100535.66;6131944;23;20020;-84
2021/11/28 08:39:57;;;;;;;18.65;7.43;;;;;;;2.78;100.00;100527.69;6182619;23;20004;-89
2021/11/28 08:42:24;;;;;;;17.42;6.72;;;;;;;2.80;100.00;100537.19;6132184;23;20444;-84
2021/11/28 08:44:49;;;;;;;23.95;7.45;;;;;;;2.81;100.00;100535.41;6182763;23;20033;-87
2021/11/28 08:47:15;;;;;;;21.60;6.80;;;;;;;2.83;100.00;100542.28;6132813;23;20071;-85
2021/11/28 08:49:41;;;;;;;18.70;6.22;;;;;;;2.87;100.00;100540.19;6132419;23;20330;-86
2021/11/28 08:52:06;;;;;;;20.13;6.95;;;;;;;2.86;100.00;100538.50;6156936;23;20001;-87
2021/11/28 08:54:33;;;;;;;17.30;6.63;;;;;;;2.86;100.00;100538.50;6132242;23;20001;-85
2021/11/28 08:56:59;;;;;;;19.00;7.55;;;;;;;2.89;100.00;100527.63;6132354;23;20066;-86
2021/11/28 08:59:27;;;;;;;17.17;6.80;;;;;;;2.90;100.00;100528.47;6132602;23;20307;-86
2021/11/28 09:01:53;;;;;;;18.13;6.78;;;;;;;2.96;100.00;100530.56;6132449;23;20075;-85
2021/11/28 09:04:22;;;;;;;17.05;6.95;;;;;;;2.96;100.00;100523.44;6108331;23;20008;-87
2021/11/28 09:06:47;;;;;;;25.00;7.50;;;;;;;3.00;100.00;100529.34;6132210;23;20513;-86
2021/11/28 09:09:13;;;;;;;30.40;10.68;;;;;;;2.97;100.00;100521.66;6132861;23;20001;-87
2021/11/28 09:11:38;;;;;;;32.63;12.60;;;;;;;3.03;100.00;100529.91;6181150;23;20052;-85
2021/11/28 09:14:05;;;;;;;35.75;12.95;;;;;;;3.02;100.00;100530.06;6132350;23;20017;-87
2021/11/28 09:16:31;;;;;;;27.75;12.25;;;;;;;3.06;100.00;100527.00;6132679;23;20008;-86
2021/11/28 09:21:28;;;;;;;44.40;14.98;;;;;;;3.13;100.00;100535.28;6133139;23;20016;-85
2021/11/28 09:26:42;;;;;;;39.75;13.13;;;;;;;3.09;100.00;100517.91;6161048;23;20009;-84
2021/11/28 09:29:07;;;;;;;30.55;9.68;;;;;;;3.16;100.00;100518.22;6107376;23;20518;-86
2021/11/28 09:31:33;;;;;;;38.85;13.52;;;;;;;3.23;100.00;100524.69;6131970;23;20100;-85
2021/11/28 09:34:01;;;;;;;39.55;14.68;;;;;;;3.26;100.00;100514.63;6132061;23;20093;-86
2021/11/28 09:36:28;;;;;;;47.22;18.08;;;;;;;3.28;100.00;100512.69;6131805;23;20009;-85
2021/11/28 09:38:55;;;;;;;48.28;18.73;;;;;;;3.30;100.00;100512.53;6183043;23;20059;-86
2021/11/28 09:41:23;;;;;;;52.42;23.10;;;;;;;3.36;100.00;100521.78;6107367;23;20013;-88
2021/11/28 09:43:50;;;;;;;43.20;17.55;;;;;;;3.40;100.00;100526.69;6132004;23;20001;-86
2021/11/28 09:46:18;;;;;;;48.15;18.75;;;;;;;3.41;100.00;100527.53;6131787;23;20004;-85
2021/11/28 09:48:44;;;;;;;43.53;13.52;;;;;;;3.42;100.00;100534.56;6132147;23;20341;-86
2021/11/28 09:51:10;;;;;;;27.13;11.68;;;;;;;3.45;100.00;100543.09;6131383;23;20385;-86
2021/11/28 09:53:37;;;;;;;22.05;9.77;;;;;;;3.51;100.00;100536.38;6156066;23;20009;-86
2021/11/28 09:56:03;;;;;;;29.30;11.38;;;;;;;3.53;100.00;100539.75;6107322;23;20009;-86
2021/11/28 09:58:30;;;;;;;38.03;12.93;;;;;;;3.58;100.00;100548.16;6107129;23;20012;-87
2021/11/28 10:00:56;;;;;;;29.50;9.98;;;;;;;3.62;100.00;100538.09;6131136;23;20016;-84
2021/11/28 10:03:23;;;;;;;23.48;8.48;;;;;;;3.63;100.00;100529.16;6130971;23;20027;-86
2021/11/28 10:05:53;;;;;;;18.88;9.45;;;;;;;3.65;100.00;100535.16;6156724;23;19997;-86
2021/11/28 10:08:20;;;;;;;24.92;9.38;;;;;;;3.69;100.00;100534.75;6132161;23;20333;-86
2021/11/28 10:11:01;;;;;;;24.70;8.30;;;;;;;3.74;100.00;100542.34;6132050;23;20062;-85
2021/11/28 10:13:27;;;;;;;26.83;8.98;;;;;;;3.76;100.00;100551.03;6131427;23;20354;-86
2021/11/28 10:15:52;;;;;;;25.80;9.65;;;;;;;3.78;100.00;100542.88;6181761;23;20012;-85
2021/11/28 10:18:18;;;;;;;25.25;8.45;;;;;;;3.85;100.00;100554.66;6131126;23;20012;-86
2021/11/28 10:20:44;;;;;;;35.40;9.02;;;;;;;3.89;100.00;100559.59;6131970;23;20384;-86
2021/11/28 10:23:10;;;;;;;27.00;9.07;;;;;;;3.90;100.00;100553.28;6132168;23;20044;-86
2021/11/28 10:25:37;;;;;;;25.80;7.93;;;;;;;3.92;100.00;100559.31;6156339;23;20441;-86
2021/11/28 10:28:09;;;;;;;31.08;10.00;;;;;;;3.97;100.00;100564.22;6131950;23;20036;-88
2021/11/28 10:30:53;;;;;;;30.77;11.13;;;;;;;4.01;100.00;100570.94;6156155;23;20009;-86
2021/11/28 10:33:24;;;;;;;45.28;17.15;;;;;;;4.06;100.00;100562.53;6131680;23;20005;-87
2021/11/28 10:36:03;;;;;;;54.17;22.77;;;;;;;4.13;100.00;100564.50;6132263;23;20028;-87
2021/11/28 10:38:40;;;;;;;46.97;17.25;;;;;;;4.19;100.00;100563.94;6131611;23;20083;-88
2021/11/28 10:41:22;;;;;;;53.03;20.05;;;;;;;4.19;100.00;100549.81;6109220;23;20001;-88
2021/11/28 10:43:48;;;;;;;61.15;20.75;;;;;;;4.28;100.00;100551.63;6159434;23;20079;-87
2021/11/28 10:46:31;;;;;;;53.05;18.23;;;;;;;4.31;100.00;100547.81;6133139;23;20000;-89
2021/11/28 10:49:08;;;;;;;56.37;20.60;;;;;;;4.34;100.00;100542.22;6108645;23;20344;-90
2021/11/28 10:51:41;;;;;;;53.45;19.98;;;;;;;4.44;100.00;100553.72;6107989;23;20092;-86
2021/11/28 10:54:25;;;;;;;52.50;19.38;;;;;;;4.52;100.00;100559.16;6157712;23;20010;-86
2021/11/28 10:57:14;;;;;;;84.57;29.33;;;;;;;4.55;100.00;100553.59;6156888;23;20178;-86
2021/11/28 10:59:42;;;;;;;31.25;11.88;;;;;;;4.62;100.00;100565.31;6133469;23;20072;-87
2021/11/28 11:02:34;;;;;;;39.55;13.50;;;;;;;4.68;100.00;100560.41;6108288;23;20132;-87
2021/11/28 11:05:02;;;;;;;54.28;22.00;;;;;;;4.69;100.00;100548.78;6110047;23;20009;-87
2021/11/28 11:07:40;;;;;;;42.45;16.67;;;;;;;4.75;100.00;100554.38;6109467;23;20002;-86
2021/11/28 11:10:15;;;;;;;32.63;13.13;;;;;;;4.81;100.00;100553.78;6109493;23;20036;-88
2021/11/28 11:12:43;;;;;;;24.15;10.15;;;;;;;4.89;100.00;100558.41;6133022;23;20009;-87
2021/11/28 11:15:09;;;;;;;20.45;10.27;;;;;;;4.95;100.00;100551.66;6133828;23;20029;-87
2021/11/28 11:17:36;;;;;;;18.50;7.95;;;;;;;5.03;100.00;100555.31;6157856;23;20433;-87
2021/11/28 11:20:02;;;;;;;22.27;8.20;;;;;;;5.09;100.00;100561.88;6134194;23;20039;-86
2021/11/28 11:22:35;;;;;;;14.52;6.35;;;;;;;5.13;100.00;100551.75;6133614;23;20368;-88
2021/11/28 11:25:15;;;;;;;15.95;5.50;;;;;;;5.20;100.00;100552.84;6133898;23;20012;-86
2021/11/28 11:27:43;;;;;;;15.25;6.38;;;;;;;5.26;100.00;100554.94;6158460;23;20017;-86
2021/11/28 11:30:23;;;;;;;20.35;6.35;;;;;;;5.34;100.00;100547.03;6159172;23;20004;-87